Time;durP1;ratioP1;P1;durP2;ratioP2;P2;SDS_P1;SDS_P2;PMS_P1;PMS_P2;Temp;Humidity;BMP_temperature;BMP_pressure;BME280_temperature;BME280_humidity;BME280_pressure;Samples;Min_cycle;Max_cycle;Signal;HPM_P1;HPM_P2
2022/05/16 00:01:08;;;;;;;14.27;7.30;;;11.10;1.00;;;;;;5033759;28;20046;-25
2022/05/16 00:03:34;;;;;;;20.83;8.52;;;11.20;1.00;;;;;;5032548;28;20050;-25
2022/05/16 00:06:00;;;;;;;17.27;7.75;;;11.00;1.00;;;;;;5030358;28;20107;-26
2022/05/16 00:08:26;;;;;;;16.25;7.97;;;10.90;1.00;;;;;;5013830;28;20489;-25
2022/05/16 00:10:52;;;;;;;13.77;7.35;;;11.00;1.00;;;;;;5013919;28;20049;-25
2022/05/16 00:13:20;;;;;;;14.82;7.78;;;11.10;1.00;;;;;;5013922;28;20053;-25
2022/05/16 00:15:45;;;;;;;22.88;8.55;;;11.00;1.00;;;;;;5014117;28;20046;-25
2022/05/16 00:18:11;;;;;;;18.25;8.35;;;11.00;1.00;;;;;;5013719;28;20486;-25
2022/05/16 00:20:37;;;;;;;14.57;7.25;;;10.90;1.00;;;;;;5014628;28;20429;-25
2022/05/16 00:23:03;;;;;;;11.63;6.85;;;10.90;1.00;;;;;;5012720;28;21194;-25
2022/05/16 00:25:28;;;;;;;17.20;8.25;;;11.10;20.20;;;;;;5014024;28;20474;-25
2022/05/16 00:27:54;;;;;;;16.30;7.68;;;10.90;27.90;;;;;;5015393;28;20113;-25
2022/05/16 00:30:20;;;;;;;17.92;7.60;;;10.90;5.60;;;;;;5035728;28;20041;-25
2022/05/16 00:32:50;;;;;;;14.88;6.95;;;11.00;1.00;;;;;;5037544;28;20069;-25
2022/05/16 00:35:20;;;;;;;17.48;6.55;;;11.20;1.00;;;;;;5037494;28;20412;-25
2022/05/16 00:37:45;;;;;;;17.27;7.65;;;11.00;1.00;;;;;;5014231;28;20046;-25
2022/05/16 00:40:12;;;;;;;13.60;7.03;;;11.10;1.00;;;;;;5017909;28;20069;-25
2022/05/16 00:42:39;;;;;;;14.38;6.47;;;11.10;1.00;;;;;;5017164;28;20124;-25
2022/05/16 00:45:07;;;;;;;16.98;7.22;;;11.10;1.00;;;;;;5017577;28;20073;-25
2022/05/16 00:47:34;;;;;;;12.70;6.45;;;11.10;1.00;;;;;;5017399;28;20038;-25
2022/05/16 00:50:01;;;;;;;16.70;6.82;;;11.20;1.00;;;;;;5017830;28;20046;-24
2022/05/16 00:52:32;;;;;;;9.65;6.32;;;11.00;1.00;;;;;;5017406;28;20049;-25
2022/05/16 00:55:01;;;;;;;17.13;6.25;;;11.10;1.00;;;;;;5017997;28;20429;-25
2022/05/16 00:57:40;;;;;;;15.35;7.30;;;11.30;1.00;;;;;;5017238;28;20034;-25
2022/05/16 01:00:38;;;;;;;15.27;6.65;;;11.10;1.00;;;;;;5017667;28;20042;-25
2022/05/16 01:05:54;;;;;;;10.50;5.80;;;11.10;1.00;;;;;;5018074;28;20133;-26
2022/05/16 01:08:24;;;;;;;11.40;5.60;;;11.10;99.90;;;;;;5017088;28;20466;-25
2022/05/16 01:10:50;;;;;;;10.38;6.18;;;11.30;99.90;;;;;;5016133;28;20053;-25
2022/05/16 01:13:16;;;;;;;11.40;5.60;;;11.40;99.90;;;;;;5029273;28;20049;-25
2022/05/16 01:15:45;;;;;;;14.05;6.38;;;11.30;99.90;;;;;;5036752;28;20041;-25
2022/05/16 01:18:16;;;;;;;11.27;5.80;;;11.10;99.90;;;;;;5036970;28;20037;-25
2022/05/16 01:20:45;;;;;;;9.25;5.10;;;11.10;99.90;;;;;;5026157;28;20046;-25
2022/05/16 01:23:14;;;;;;;12.00;5.22;;;11.10;99.90;;;;;;5016737;28;20449;-25
2022/05/16 01:25:40;;;;;;;11.65;5.50;;;11.20;99.90;;;;;;5016819;28;20050;-25
2022/05/16 01:28:06;;;;;;;8.98;4.60;;;11.20;99.90;;;;;;5016691;28;20050;-25
2022/05/16 01:30:41;;;;;;;7.47;4.05;;;11.20;99.90;;;;;;5016845;28;20085;-25
2022/05/16 01:33:07;;;;;;;7.95;3.78;;;11.30;99.90;;;;;;5016720;28;20045;-25
2022/05/16 01:35:33;;;;;;;13.50;4.95;;;11.40;99.90;;;;;;5016262;28;20057;-25
2022/05/16 01:40:48;;;;;;;5.47;3.47;;;11.40;99.90;;;;;;5014307;28;20053;-25
2022/05/16 01:43:15;;;;;;;8.13;4.68;;;11.50;99.90;;;;;;5015502;28;20053;-25
2022/05/16 01:45:43;;;;;;;10.35;4.00;;;11.50;99.90;;;;;;5016449;28;20048;-25
2022/05/16 01:48:10;;;;;;;8.02;3.55;;;11.50;99.90;;;;;;5016313;28;20046;-25
2022/05/16 01:50:36;;;;;;;8.48;4.22;;;11.50;93.40;;;;;;5016870;28;20046;-25
2022/05/16 01:53:02;;;;;;;7.13;3.30;;;11.60;63.90;;;;;;5016352;28;20042;-25
2022/05/16 01:55:28;;;;;;;8.93;3.60;;;11.50;23.50;;;;;;5029553;28;20057;-25
2022/05/16 01:57:54;;;;;;;14.57;3.55;;;11.50;1.00;;;;;;5036699;28;20120;-25
2022/05/16 02:00:20;;;;;;;6.63;3.38;;;11.50;1.00;;;;;;5035914;28;20053;-25
2022/05/16 02:02:46;;;;;;;6.40;3.20;;;11.50;1.00;;;;;;5032542;28;20133;-25
2022/05/16 02:05:21;;;;;;;6.70;3.63;;;11.50;1.00;;;;;;5031372;28;20065;-26
2022/05/16 02:07:46;;;;;;;4.65;3.28;;;11.50;1.00;;;;;;5018322;28;20041;-25
2022/05/16 02:10:15;;;;;;;6.53;2.83;;;11.70;1.00;;;;;;5033627;28;20049;-25
2022/05/16 02:12:42;;;;;;;5.75;2.75;;;11.50;1.00;;;;;;5028702;28;20049;-25
2022/05/16 02:15:11;;;;;;;5.88;3.25;;;11.40;1.00;;;;;;5015857;28;20052;-25
2022/05/16 02:17:37;;;;;;;4.88;2.25;;;11.50;1.00;;;;;;5014802;28;20136;-25
2022/05/16 02:20:04;;;;;;;6.18;2.65;;;11.40;1.00;;;;;;4998307;28;20133;-25
2022/05/16 02:25:15;;;;;;;4.20;2.20;;;11.60;1.00;;;;;;5015802;28;20209;-25
2022/05/16 02:27:43;;;;;;;5.13;2.30;;;11.30;99.90;;;;;;5015153;28;20580;-26
2022/05/16 02:30:10;;;;;;;6.20;1.90;;;11.40;99.90;;;;;;5015238;28;20085;-25
2022/05/16 02:32:36;;;;;;;6.68;2.60;;;11.30;99.90;;;;;;5015490;28;20084;-25
2022/05/16 02:35:02;;;;;;;4.50;1.90;;;11.50;99.90;;;;;;5015659;28;20049;-25
2022/05/16 02:37:29;;;;;;;6.10;2.88;;;11.30;99.90;;;;;;5015512;28;20479;-25
2022/05/16 02:39:55;;;;;;;4.78;1.83;;;11.20;99.90;;;;;;5015980;28;20148;-25
2022/05/16 02:42:20;;;;;;;4.65;1.80;;;11.20;99.90;;;;;;5015458;28;20050;-25
2022/05/16 02:44:46;;;;;;;5.25;2.20;;;11.20;99.90;;;;;;5015005;28;20081;-26
2022/05/16 02:47:14;;;;;;;6.40;2.30;;;11.20;99.90;;;;;;5014242;28;20050;-25
2022/05/16 02:49:40;;;;;;;6.28;2.13;;;11.20;99.90;;;;;;5015201;28;20048;-25
2022/05/16 02:52:06;;;;;;;8.05;3.00;;;11.10;99.90;;;;;;5023305;28;20045;-25
2022/05/16 02:54:32;;;;;;;3.70;2.58;;;11.20;99.90;;;;;;5030973;28;20048;-25
2022/05/16 02:56:58;;;;;;;4.45;1.80;;;11.30;99.90;;;;;;5015027;28;20053;-25
2022/05/16 02:59:26;;;;;;;7.45;2.20;;;11.10;99.90;;;;;;5015039;28;20429;-25
2022/05/16 03:01:53;;;;;;;6.40;2.20;;;11.10;99.90;;;;;;5015047;28;20068;-25
2022/05/16 03:04:19;;;;;;;3.22;1.85;;;11.10;99.90;;;;;;5015002;28;20408;-25
2022/05/16 03:06:45;;;;;;;3.03;1.70;;;11.10;99.90;;;;;;5026585;28;20041;-25
2022/05/16 03:09:11;;;;;;;7.70;2.00;;;11.20;99.90;;;;;;5034842;28;20044;-25
2022/05/16 03:11:36;;;;;;;4.40;1.50;;;11.10;99.90;;;;;;5034564;28;20132;-25
2022/05/16 03:14:02;;;;;;;4.60;2.10;;;11.00;99.90;;;;;;5034610;28;20131;-25
2022/05/16 03:16:28;;;;;;;3.63;1.65;;;11.00;99.90;;;;;;5023326;28;20050;-25
2022/05/16 03:18:54;;;;;;;4.72;2.40;;;11.00;99.90;;;;;;5014983;28;20038;-25
2022/05/16 03:21:20;;;;;;;5.88;2.10;;;11.00;99.90;;;;;;5014243;28;20100;-25
2022/05/16 03:23:45;;;;;;;6.65;2.28;;;11.50;99.90;;;;;;5014691;28;20062;-25
2022/05/16 03:26:12;;;;;;;3.92;2.00;;;10.90;99.90;;;;;;5015591;28;20543;-25
2022/05/16 03:28:38;;;;;;;4.57;1.75;;;11.00;99.90;;;;;;5031929;28;20124;-25
2022/05/16 03:31:04;;;;;;;6.05;1.80;;;10.90;99.90;;;;;;5033931;28;20192;-25
2022/05/16 03:33:30;;;;;;;4.00;2.38;;;10.90;99.90;;;;;;5034203;28;20083;-25
2022/05/16 03:35:56;;;;;;;4.07;2.08;;;10.90;99.90;;;;;;5032285;28;20453;-25
2022/05/16 03:41:11;;;;;;;6.47;2.20;;;11.00;99.90;;;;;;5014624;28;20050;-25
2022/05/16 03:43:38;;;;;;;3.75;1.60;;;10.90;99.90;;;;;;5014374;28;20050;-25
2022/05/16 03:46:05;;;;;;;6.57;2.15;;;10.90;99.90;;;;;;5014762;28;20107;-24
2022/05/16 03:48:31;;;;;;;5.68;2.30;;;10.90;99.90;;;;;;5013945;28;20468;-25
2022/05/16 03:50:57;;;;;;;5.90;1.80;;;10.90;99.90;;;;;;5022224;28;20060;-25
2022/05/16 03:53:23;;;;;;;5.50;2.10;;;11.10;99.90;;;;;;5033867;28;20049;-24
2022/05/16 03:55:49;;;;;;;3.70;1.95;;;10.90;99.90;;;;;;4984746;28;20110;-25
2022/05/16 03:58:15;;;;;;;3.83;1.75;;;11.10;99.90;;;;;;5026377;28;20042;-25
2022/05/16 04:00:41;;;;;;;4.95;1.80;;;10.90;99.90;;;;;;5014587;28;20042;-25
2022/05/16 04:03:07;;;;;;;4.80;1.88;;;11.00;99.90;;;;;;5012856;28;20046;-25
2022/05/16 04:05:33;;;;;;;4.55;1.42;;;11.20;99.90;;;;;;5020299;28;20060;-25
2022/05/16 04:07:59;;;;;;;4.78;1.70;;;11.00;99.90;;;;;;5032403;28;20125;-25
2022/05/16 04:10:24;;;;;;;5.18;2.08;;;11.00;99.90;;;;;;5017430;28;20042;-25
2022/05/16 04:12:50;;;;;;;4.82;1.83;;;11.20;99.90;;;;;;5033630;28;20050;-25
2022/05/16 04:15:16;;;;;;;4.22;2.00;;;11.10;99.90;;;;;;5032924;28;20386;-25
2022/05/16 04:17:42;;;;;;;5.32;1.95;;;11.10;99.90;;;;;;5033533;28;20042;-25
2022/05/16 04:20:09;;;;;;;9.77;1.92;;;11.10;99.90;;;;;;5025744;28;20125;-26
2022/05/16 04:22:35;;;;;;;3.58;1.75;;;11.10;99.90;;;;;;5033503;28;20046;-25
2022/05/16 04:25:01;;;;;;;6.35;1.70;;;11.20;99.90;;;;;;5026348;28;20054;-25
2022/05/16 04:27:27;;;;;;;3.72;1.98;;;11.30;99.90;;;;;;5013721;28;20116;-25
2022/05/16 04:29:53;;;;;;;4.35;1.90;;;11.30;99.90;;;;;;5015200;28;20081;-25
2022/05/16 04:32:18;;;;;;;4.03;1.55;;;11.40;99.90;;;;;;5030899;28;20081;-25
2022/05/16 04:34:44;;;;;;;5.75;1.65;;;11.60;99.90;;;;;;5033458;28;20128;-24
2022/05/16 04:37:10;;;;;;;4.53;1.88;;;11.50;99.90;;;;;;5032776;28;20046;-25
2022/05/16 04:39:35;;;;;;;3.22;1.55;;;11.60;99.90;;;;;;5032322;28;20049;-28
2022/05/16 04:44:45;;;;;;;6.22;1.52;;;11.70;99.90;;;;;;5032717;28;20063;-25
2022/05/16 04:47:12;;;;;;;7.78;2.13;;;11.90;99.90;;;;;;5032730;28;20455;-26
2022/05/16 04:49:38;;;;;;;5.47;1.85;;;12.00;99.90;;;;;;5033187;28;20091;-25
2022/05/16 04:52:04;;;;;;;4.35;1.70;;;11.90;99.90;;;;;;5018064;28;20053;-25
2022/05/16 04:54:30;;;;;;;4.97;1.90;;;12.00;99.90;;;;;;5019835;28;20045;-25
2022/05/16 04:56:56;;;;;;;7.22;2.67;;;12.10;99.90;;;;;;5032193;28;20060;-25
2022/05/16 04:59:22;;;;;;;5.18;1.70;;;12.20;99.90;;;;;;5033189;28;20057;-25
2022/05/16 05:01:48;;;;;;;8.98;2.10;;;12.30;99.90;;;;;;5025037;28;20050;-25
2022/05/16 05:04:15;;;;;;;4.53;2.08;;;12.40;92.10;;;;;;5013399;28;20054;-25
2022/05/16 05:06:41;;;;;;;6.43;1.60;;;12.40;89.20;;;;;;5013416;28;20046;-25
2022/05/16 05:09:08;;;;;;;4.28;1.80;;;12.50;78.90;;;;;;5017347;28;20042;-25
2022/05/16 05:14:33;;;;;;;4.10;1.73;;;12.90;51.80;;;;;;5028547;28;20072;-25
2022/05/16 05:17:09;;;;;;;4.20;2.10;;;12.80;34.10;;;;;;5034825;28;20055;-25
2022/05/16 05:19:36;;;;;;;5.20;1.75;;;12.70;1.00;;;;;;5036998;28;20396;-25
2022/05/16 05:22:03;;;;;;;4.20;1.80;;;12.70;19.70;;;;;;5034396;28;20045;-26
2022/05/16 05:24:29;;;;;;;5.20;1.85;;;12.70;14.60;;;;;;5025998;28;20065;-26
2022/05/16 05:26:56;;;;;;;8.52;2.13;;;12.80;4.80;;;;;;5035409;28;20095;-25
2022/05/16 05:29:22;;;;;;;5.43;1.70;;;12.80;1.40;;;;;;5037049;28;20049;-25
2022/05/16 05:31:49;;;;;;;5.18;1.90;;;12.90;2.80;;;;;;5036154;28;20436;-25
2022/05/16 05:34:15;;;;;;;7.35;2.35;;;12.90;1.00;;;;;;5020773;28;20050;-26
2022/05/16 05:36:42;;;;;;;5.72;2.45;;;13.00;1.00;;;;;;5017175;28;20049;-25
2022/05/16 05:39:09;;;;;;;4.30;2.00;;;13.10;1.00;;;;;;5025112;28;20061;-26
2022/05/16 05:41:35;;;;;;;6.43;2.92;;;13.20;1.00;;;;;;5036258;28;20048;-25
2022/05/16 05:44:01;;;;;;;5.85;2.33;;;13.40;1.00;;;;;;5026802;28;20121;-25
2022/05/16 05:46:32;;;;;;;3.78;1.90;;;13.60;1.00;;;;;;5016692;28;20046;-26
2022/05/16 05:48:58;;;;;;;4.55;1.90;;;13.80;1.00;;;;;;5016347;28;20083;-25
2022/05/16 05:51:24;;;;;;;8.60;2.15;;;13.90;1.00;;;;;;5016373;28;20184;-26
2022/05/16 05:53:49;;;;;;;5.63;2.10;;;14.00;1.00;;;;;;5016521;28;20052;-25
2022/05/16 05:56:15;;;;;;;6.72;2.15;;;14.10;1.00;;;;;;5016573;28;20054;-25
2022/05/16 05:58:42;;;;;;;6.20;2.00;;;14.00;1.00;;;;;;5016121;28;20485;-25
2022/05/16 06:01:09;;;;;;;5.03;1.92;;;13.90;1.00;;;;;;5024782;28;20459;-25
2022/05/16 06:03:35;;;;;;;4.53;2.08;;;13.90;1.00;;;;;;5035925;28;20128;-25
2022/05/16 06:06:01;;;;;;;7.47;2.25;;;13.90;1.00;;;;;;5018859;28;20085;-25
2022/05/16 06:08:26;;;;;;;4.63;2.40;;;14.00;1.00;;;;;;5023589;28;20157;-25
2022/05/16 06:10:52;;;;;;;3.85;2.10;;;14.30;1.00;;;;;;5016786;28;20481;-25
2022/05/16 06:13:19;;;;;;;5.43;2.20;;;14.30;1.00;;;;;;5015893;28;20096;-25
2022/05/16 06:15:45;;;;;;;4.50;2.45;;;14.60;1.00;;;;;;5022753;28;20099;-25
2022/05/16 06:18:11;;;;;;;10.45;2.30;;;14.80;1.00;;;;;;5031925;28;20137;-25
2022/05/16 06:20:36;;;;;;;7.38;2.05;;;15.60;1.00;;;;;;5035894;28;20077;-25
2022/05/16 06:23:02;;;;;;;6.30;2.15;;;16.30;99.90;;;;;;5035789;28;20049;-25
2022/05/16 06:25:34;;;;;;;7.70;2.20;;;16.90;99.90;;;;;;5036125;28;20094;-24
2022/05/16 06:28:21;;;;;;;5.35;1.95;;;17.70;99.90;;;;;;5033101;28;20041;-25
2022/05/16 06:30:50;;;;;;;7.75;2.60;;;18.20;99.90;;;;;;5015529;28;20401;-24
2022/05/16 06:33:18;;;;;;;9.05;2.63;;;18.80;99.90;;;;;;5015497;28;20081;-24
2022/05/16 06:35:44;;;;;;;6.32;1.92;;;19.30;99.90;;;;;;5028924;28;20045;-25
2022/05/16 06:38:16;;;;;;;5.95;2.30;;;19.80;99.80;;;;;;5033763;28;20523;-24
2022/05/16 06:40:46;;;;;;;6.32;2.50;;;19.80;1.00;;;;;;5017366;28;20052;-25
2022/05/16 06:43:12;;;;;;;8.30;1.75;;;19.80;1.00;;;;;;5014164;28;20554;-25
2022/05/16 06:45:40;;;;;;;5.15;2.22;;;20.10;1.00;;;;;;5015225;28;20124;-27
2022/05/16 06:48:06;;;;;;;8.07;2.30;;;20.40;1.00;;;;;;5033422;28;20041;-25
2022/05/16 06:50:34;;;;;;;8.52;2.60;;;20.20;1.00;;;;;;5034090;28;20045;-24
2022/05/16 06:53:00;;;;;;;7.18;2.80;;;20.40;1.00;;;;;;5034973;28;20502;-24
2022/05/16 06:55:26;;;;;;;5.90;2.10;;;20.60;1.00;;;;;;5034912;28;20053;-25
2022/05/16 06:57:52;;;;;;;7.47;2.28;;;20.90;1.00;;;;;;5019378;28;20139;-25
2022/05/16 07:00:19;;;;;;;8.65;2.75;;;20.90;1.00;;;;;;5015840;28;20054;-25
2022/05/16 07:02:45;;;;;;;8.45;2.10;;;21.10;1.00;;;;;;5015035;28;20054;-25
2022/05/16 07:05:12;;;;;;;5.47;2.03;;;21.30;1.00;;;;;;5014539;28;20486;-25
2022/05/16 07:07:38;;;;;;;7.07;2.20;;;21.30;1.00;;;;;;5014664;28;20053;-24
2022/05/16 07:10:05;;;;;;;6.82;2.30;;;21.40;1.00;;;;;;5014887;28;20045;-25
2022/05/16 07:12:31;;;;;;;6.68;2.38;;;21.50;1.00;;;;;;5015655;28;20057;-25
2022/05/16 07:14:57;;;;;;;8.23;2.35;;;21.60;1.00;;;;;;5014685;28;20085;-25
2022/05/16 07:17:23;;;;;;;8.63;2.65;;;21.70;1.00;;;;;;5014595;28;20525;-25
2022/05/16 07:19:49;;;;;;;9.60;3.67;;;21.70;1.00;;;;;;5014009;28;20049;-25
2022/05/16 07:22:19;;;;;;;6.78;2.78;;;21.20;1.00;;;;;;5014495;28;20474;-25
2022/05/16 07:24:45;;;;;;;9.25;2.83;;;21.20;1.00;;;;;;5014665;28;20069;-25
2022/05/16 07:29:57;;;;;;;6.43;2.80;;;21.50;1.00;;;;;;5015237;28;20050;-26
2022/05/16 07:32:23;;;;;;;6.97;2.95;;;21.80;99.90;;;;;;5034236;28;20049;-26
2022/05/16 07:34:49;;;;;;;11.13;2.53;;;21.40;1.00;;;;;;5034223;28;20041;-26
2022/05/16 07:37:15;;;;;;;10.63;2.72;;;20.70;1.00;;;;;;5034125;28;20409;-26
2022/05/16 07:39:41;;;;;;;10.60;2.65;;;20.40;1.00;;;;;;5032542;28;20102;-26
2022/05/16 07:42:09;;;;;;;8.65;2.92;;;20.40;1.00;;;;;;5032981;28;20132;-26
2022/05/16 07:44:36;;;;;;;7.18;2.28;;;20.80;1.00;;;;;;5015444;28;20195;-26
2022/05/16 07:47:03;;;;;;;10.20;3.65;;;21.20;1.00;;;;;;5033985;28;20056;-26
2022/05/16 07:49:28;;;;;;;9.05;2.80;;;21.50;1.00;;;;;;5023850;28;20041;-26
2022/05/16 07:51:54;;;;;;;10.63;3.55;;;21.80;99.90;;;;;;5016134;28;20042;-26
2022/05/16 07:54:20;;;;;;;12.05;2.47;;;22.10;99.90;;;;;;5031718;28;20405;-26
2022/05/16 07:56:46;;;;;;;10.63;2.38;;;22.20;99.90;;;;;;5023557;28;20056;-26
2022/05/16 07:59:12;;;;;;;6.65;2.10;;;22.40;99.90;;;;;;5025409;28;20041;-26
2022/05/16 08:01:38;;;;;;;7.07;2.50;;;22.50;99.90;;;;;;5026085;28;20086;-26
2022/05/16 08:04:05;;;;;;;6.88;2.60;;;22.80;99.90;;;;;;5024849;28;20128;-26
2022/05/16 08:06:31;;;;;;;7.82;2.83;;;22.90;99.90;;;;;;5018871;28;20057;-26
2022/05/16 08:11:41;;;;;;;8.13;2.67;;;23.30;99.90;;;;;;5031879;28;20049;-26
2022/05/16 08:14:07;;;;;;;8.35;2.60;;;23.30;99.90;;;;;;5023218;28;20417;-26
2022/05/16 08:16:33;;;;;;;7.43;2.55;;;23.30;99.90;;;;;;5013528;28;20057;-26
2022/05/16 08:18:59;;;;;;;11.05;2.67;;;23.40;99.90;;;;;;5013562;28;20042;-26
2022/05/16 08:21:25;;;;;;;9.65;2.65;;;23.60;99.90;;;;;;5014365;28;20050;-26
2022/05/16 08:23:51;;;;;;;11.57;3.10;;;24.00;99.90;;;;;;5013977;28;20065;-26
2022/05/16 08:26:17;;;;;;;9.50;2.72;;;24.40;99.90;;;;;;5026180;28;20049;-27
2022/05/16 08:28:43;;;;;;;8.55;2.75;;;24.50;99.90;;;;;;5033404;28;20037;-26
2022/05/16 08:31:09;;;;;;;11.77;2.28;;;24.90;99.90;;;;;;5032124;28;20497;-26
2022/05/16 08:33:37;;;;;;;12.45;2.83;;;25.00;99.90;;;;;;5020714;28;20049;-26
2022/05/16 08:41:42;;;;;;;9.15;3.13;;;25.70;99.90;;;;;;5033450;28;20053;-26
2022/05/16 08:44:15;;;;;;;6.93;2.67;;;26.30;99.90;;;;;;5033032;28;20490;-26
2022/05/16 08:46:55;;;;;;;8.00;2.80;;;26.60;91.90;;;;;;5025562;28;20054;-26
2022/05/16 08:49:34;;;;;;;11.77;3.10;;;26.70;74.90;;;;;;5012094;28;20053;-27
2022/05/16 08:52:17;;;;;;;7.30;2.78;;;26.40;68.20;;;;;;5016659;28;20129;-26
2022/05/16 08:54:59;;;;;;;6.15;2.40;;;25.90;80.80;;;;;;5033511;28;20501;-27
2022/05/16 08:57:34;;;;;;;;;;;25.30;90.30;;;;;;5027517;28;20042;-26
2022/05/16 09:00:27;;;;;;;9.02;2.38;;;24.40;78.40;;;;;;5017310;28;19921;-26
2022/05/16 09:02:56;;;;;;;11.60;3.58;;;24.10;99.90;;;;;;5047826;28;20383;-26
2022/05/16 09:05:44;;;;;;;11.05;3.10;;;23.40;99.90;;;;;;5026403;28;20057;-26
2022/05/16 09:08:14;;;;;;;8.50;2.58;;;23.20;99.90;;;;;;5031803;28;20042;-26
2022/05/16 09:10:56;;;;;;;9.00;2.42;;;22.80;99.90;;;;;;5036638;28;20558;-26
2022/05/16 09:13:24;;;;;;;9.15;2.70;;;22.60;99.90;;;;;;5034617;28;20041;-26
2022/05/16 09:16:05;;;;;;;6.32;2.47;;;22.50;99.90;;;;;;5036840;28;20088;-26
2022/05/16 09:18:55;;;;;;;11.32;3.97;;;22.60;99.90;;;;;;5033318;28;20057;-26
2022/05/16 09:21:36;;;;;;;8.52;2.50;;;23.00;99.90;;;;;;5036345;28;20525;-26
2022/05/16 09:24:09;;;;;;;7.60;2.30;;;23.80;99.90;;;;;;5021194;28;20068;-27
2022/05/16 09:27:04;;;;;;;8.15;2.53;;;24.60;99.90;;;;;;5020026;28;20095;-26
2022/05/16 09:29:37;;;;;;;7.90;2.20;;;25.30;99.90;;;;;;5023411;28;20056;-27
2022/05/16 09:32:06;;;;;;;7.70;2.90;;;26.10;99.90;;;;;;5017094;28;20099;-27
2022/05/16 09:34:33;;;;;;;18.70;2.47;;;26.70;74.50;;;;;;5016668;28;20046;-26
2022/05/16 09:36:58;;;;;;;8.02;2.42;;;26.90;47.70;;;;;;5021686;28;20551;-27
2022/05/16 09:39:31;;;;;;;10.68;3.40;;;27.20;38.30;;;;;;5033411;28;20045;-26
2022/05/16 09:42:20;;;;;;;8.35;3.55;;;27.50;24.30;;;;;;5036403;28;20057;-26
2022/05/16 09:45:02;;;;;;;11.98;2.55;;;27.50;12.10;;;;;;5035970;28;20381;-26
2022/05/16 09:47:28;;;;;;;7.72;2.75;;;27.80;1.20;;;;;;5036122;28;20132;-28
2022/05/16 09:50:09;;;;;;;11.35;2.60;;;27.80;8.30;;;;;;5033438;28;20132;-27
2022/05/16 09:52:42;;;;;;;11.52;2.72;;;27.90;1.50;;;;;;5035568;28;20064;-27
2022/05/16 09:55:33;;;;;;;9.50;2.47;;;28.00;1.00;;;;;;5036671;28;20252;-27
2022/05/16 09:58:22;;;;;;;13.32;2.40;;;28.40;1.00;;;;;;5032226;28;20054;-27
2022/05/16 10:01:06;;;;;;;10.07;2.72;;;28.70;1.00;;;;;;5030806;28;20048;-27
2022/05/16 10:03:34;;;;;;;8.20;2.70;;;28.80;1.00;;;;;;5016648;28;20037;-27
2022/05/16 10:06:08;;;;;;;8.70;2.45;;;28.70;1.00;;;;;;5020213;28;20100;-27
2022/05/16 10:08:37;;;;;;;12.00;2.80;;;29.10;1.00;;;;;;5035798;28;20079;-27
2022/05/16 10:11:07;;;;;;;8.95;2.60;;;28.50;1.00;;;;;;5035420;28;20042;-26
2022/05/16 10:13:34;;;;;;;7.53;2.47;;;27.90;1.00;;;;;;5031911;28;20045;-26
2022/05/16 10:16:03;;;;;;;9.52;2.88;;;27.50;1.00;;;;;;5030490;28;20046;-26
2022/05/16 10:18:29;;;;;;;10.65;2.50;;;27.40;1.00;;;;;;5017849;28;20053;-27
2022/05/16 10:21:01;;;;;;;7.13;2.28;;;27.30;1.00;;;;;;5017643;28;20042;-28
2022/05/16 10:23:46;;;;;;;11.88;2.92;;;27.30;1.00;;;;;;5030979;28;20417;-26
2022/05/16 10:26:19;;;;;;;9.10;2.50;;;27.40;1.00;;;;;;5022588;28;20168;-26
2022/05/16 10:29:07;;;;;;;10.02;2.55;;;27.30;1.00;;;;;;5013861;28;20121;-27
2022/05/16 10:34:40;;;;;;;10.18;2.83;;;27.40;1.00;;;;;;5015695;28;20470;-27
2022/05/16 10:37:07;;;;;;;10.20;2.70;;;27.60;1.00;;;;;;5015553;28;20498;-27
2022/05/16 10:39:35;;;;;;;6.40;2.53;;;27.90;1.00;;;;;;5015462;28;20117;-27
2022/05/16 10:42:07;;;;;;;9.63;2.20;;;28.10;1.00;;;;;;5017123;28;20045;-27
2022/05/16 10:44:50;;;;;;;15.80;5.38;;;28.70;1.00;;;;;;5028332;28;20079;-27
2022/05/16 10:47:19;;;;;;;;;;;29.40;1.00;;;;;;5015491;28;20489;-27
2022/05/16 10:49:55;;;;;;;6.55;2.40;;;29.60;1.00;;;;;;5025291;28;20337;-27
2022/05/16 10:52:37;;;;;;;9.10;2.38;;;29.90;1.00;;;;;;5034752;28;20477;-27
2022/05/16 10:55:04;;;;;;;8.18;2.67;;;29.50;1.00;;;;;;5015242;28;20053;-27
2022/05/16 10:57:52;;;;;;;9.02;2.38;;;29.10;1.00;;;;;;5018123;28;20517;-27
2022/05/16 11:00:20;;;;;;;6.45;3.10;;;28.80;1.00;;;;;;5018323;28;20072;-28
2022/05/16 11:02:55;;;;;;;5.97;2.28;;;28.90;1.00;;;;;;5027914;28;20515;-27
2022/05/16 11:05:42;;;;;;;12.07;2.58;;;29.20;1.00;;;;;;5021883;28;20078;-27
2022/05/16 11:08:32;;;;;;;9.18;3.05;;;29.20;1.00;;;;;;5021741;28;20037;-27
2022/05/16 11:11:21;;;;;;;6.78;2.05;;;29.10;1.00;;;;;;5024530;28;20041;-27
2022/05/16 11:13:59;;;;;;;4.18;2.20;;;28.80;1.00;;;;;;5018724;28;20076;-27
2022/05/16 11:16:32;;;;;;;9.55;2.42;;;28.40;1.00;;;;;;5026830;28;20046;-27
2022/05/16 11:19:21;;;;;;;6.15;2.60;;;28.10;1.00;;;;;;5026995;28;20052;-27
2022/05/16 11:22:00;;;;;;;7.28;2.45;;;27.80;1.00;;;;;;5024577;28;20050;-27
2022/05/16 11:24:38;;;;;;;5.60;2.17;;;27.50;1.00;;;;;;4996399;28;20493;-27
2022/05/16 11:27:27;;;;;;;9.93;2.50;;;27.20;1.00;;;;;;5017421;28;20072;-27
2022/05/16 11:30:12;;;;;;;8.20;2.22;;;26.90;1.00;;;;;;5015551;28;20057;-27
2022/05/16 11:32:59;;;;;;;13.30;2.65;;;26.60;1.00;;;;;;5018174;28;20136;-27
2022/05/16 11:36:16;;;;;;;4.68;2.00;;;26.40;1.00;;;;;;5017778;28;20069;-28
2022/05/16 11:38:53;;;;;;;7.65;2.40;;;26.30;1.00;;;;;;5010550;28;20062;-26
2022/05/16 11:41:35;;;;;;;7.65;2.05;;;26.30;1.00;;;;;;5011067;28;20092;-28
2022/05/16 11:44:25;;;;;;;8.88;2.63;;;26.30;1.00;;;;;;5023420;28;20434;-27
2022/05/16 11:47:25;;;;;;;8.30;2.28;;;26.40;1.00;;;;;;5026051;28;20124;-27
2022/05/16 11:50:16;;;;;;;7.50;2.50;;;26.60;1.00;;;;;;5017084;28;20137;-27
2022/05/16 11:53:16;;;;;;;10.00;2.70;;;26.70;1.00;;;;;;5024253;28;20056;-27
2022/05/16 12:01:32;;;;;;;10.38;2.78;;;27.60;1.00;;;;;;5033816;28;20495;-25
2022/05/16 12:04:11;;;;;;;11.10;2.75;;;27.90;1.00;;;;;;5031908;28;20080;-25
2022/05/16 12:06:45;;;;;;;7.20;2.45;;;27.90;1.00;;;;;;5022521;28;20072;-25
2022/05/16 12:09:24;;;;;;;6.97;2.25;;;27.90;1.00;;;;;;5021116;28;20038;-25
2022/05/16 12:12:08;;;;;;;6.03;2.60;;;27.80;1.00;;;;;;5030224;28;20081;-24
2022/05/16 12:14:42;;;;;;;8.85;2.50;;;27.60;1.00;;;;;;5033710;28;20053;-24
2022/05/16 12:17:13;;;;;;;7.88;3.35;;;27.00;1.00;;;;;;5027343;28;20107;-24
2022/05/16 12:19:42;;;;;;;13.05;3.45;;;26.40;1.00;;;;;;5032669;28;20045;-24
2022/05/16 12:22:14;;;;;;;11.93;3.10;;;26.10;1.00;;;;;;5030705;28;20049;-25
2022/05/16 12:25:02;;;;;;;9.93;2.70;;;25.80;3.80;;;;;;5016929;28;20093;-24
2022/05/16 12:27:30;;;;;;;12.32;4.07;;;25.80;14.90;;;;;;5013630;28;20054;-24
2022/05/16 12:30:03;;;;;;;12.18;3.20;;;25.50;22.90;;;;;;5030422;28;20057;-24
2022/05/16 12:32:29;;;;;;;13.23;3.47;;;25.50;40.00;;;;;;5018279;28;20050;-24
2022/05/16 12:35:10;;;;;;;9.45;3.10;;;25.60;49.20;;;;;;5013110;28;20052;-24
2022/05/16 12:37:38;;;;;;;7.93;3.53;;;25.80;64.80;;;;;;5013225;28;20052;-24
2022/05/16 12:40:39;;;;;;;9.18;3.45;;;25.60;61.80;;;;;;5014393;28;20553;-25
2022/05/16 12:43:38;;;;;;;9.32;2.67;;;25.80;78.20;;;;;;5029514;28;20100;-24
2022/05/16 12:46:41;;;;;;;9.50;3.35;;;25.80;88.20;;;;;;5037080;28;20148;-24
2022/05/16 12:49:18;;;;;;;10.52;3.63;;;25.70;67.90;;;;;;5008085;28;20041;-24
2022/05/16 12:51:59;;;;;;;13.70;3.90;;;25.60;83.70;;;;;;5020984;28;20054;-24
2022/05/16 12:54:45;;;;;;;10.75;3.50;;;25.60;92.80;;;;;;5017121;28;20112;-25
2022/05/16 12:57:55;;;;;;;6.97;2.78;;;25.70;99.90;;;;;;5013113;28;20046;-24
2022/05/16 13:00:39;;;;;;;7.18;2.97;;;25.70;78.30;;;;;;5007429;28;20057;-24
2022/05/16 13:03:38;;;;;;;8.35;2.60;;;25.70;89.40;;;;;;5013308;28;20076;-24
2022/05/16 13:06:31;;;;;;;8.30;2.92;;;25.60;99.90;;;;;;5013807;28;20052;-24
2022/05/16 13:09:13;;;;;;;12.13;3.38;;;25.50;99.90;;;;;;5013734;28;20048;-26
2022/05/16 13:12:08;;;;;;;8.25;3.13;;;25.70;99.90;;;;;;5013614;28;20045;-24
2022/05/16 13:14:50;;;;;;;8.30;3.20;;;25.60;98.20;;;;;;5013778;28;20065;-25
2022/05/16 13:17:36;;;;;;;8.55;3.92;;;25.70;99.90;;;;;;5009630;28;20061;-25
2022/05/16 13:20:07;;;;;;;10.50;3.92;;;25.50;99.90;;;;;;5014369;28;20112;-24
2022/05/16 13:22:34;;;;;;;8.38;3.45;;;25.30;99.90;;;;;;5015466;28;20116;-25
2022/05/16 13:25:00;;;;;;;7.35;3.30;;;25.30;99.90;;;;;;5012620;28;20053;-24
2022/05/16 13:30:21;;;;;;;13.20;4.80;;;24.90;99.90;;;;;;5026795;28;20085;-24
2022/05/16 13:32:47;;;;;;;8.27;4.32;;;24.60;99.90;;;;;;5012823;28;20441;-24
2022/05/16 13:35:24;;;;;;;13.57;4.85;;;24.20;99.90;;;;;;5013116;28;20081;-25
2022/05/16 13:37:52;;;;;;;7.72;3.85;;;24.00;99.90;;;;;;5025822;28;20122;-24
2022/05/16 13:40:32;;;;;;;9.80;4.55;;;23.70;99.90;;;;;;5020164;28;20077;-24
2022/05/16 13:42:58;;;;;;;9.25;4.25;;;23.80;99.90;;;;;;5021946;28;20042;-24
2022/05/16 13:45:25;;;;;;;9.25;4.22;;;23.60;99.90;;;;;;5022393;28;20500;-24
2022/05/16 13:47:52;;;;;;;11.77;5.10;;;23.50;99.90;;;;;;5017645;28;20065;-24
2022/05/16 13:50:27;;;;;;;9.25;4.60;;;23.50;99.90;;;;;;5028864;28;20496;-24